sensor_id;sensor_type;location;lat;lon;timestamp;P1;durP1;ratioP1;P2;durP2;ratioP2
35961;SDS011;22044;48.298;10.008;2024-03-02T00:01:52;12.53;;;10.13;;
35961;SDS011;22044;48.298;10.008;2024-03-02T00:04:39;12.17;;;9.90;;
35961;SDS011;22044;48.298;10.008;2024-03-02T00:07:25;13.57;;;10.50;;
35961;SDS011;22044;48.298;10.008;2024-03-02T00:10:13;11.40;;;9.47;;
35961;SDS011;22044;48.298;10.008;2024-03-02T00:13:04;11.40;;;9.53;;
35961;SDS011;22044;48.298;10.008;2024-03-02T00:15:51;11.10;;;9.27;;
35961;SDS011;22044;48.298;10.008;2024-03-02T00:18:37;12.20;;;9.80;;
35961;SDS011;22044;48.298;10.008;2024-03-02T00:21:25;11.70;;;9.60;;
35961;SDS011;22044;48.298;10.008;2024-03-02T00:24:17;12.00;;;9.77;;
35961;SDS011;22044;48.298;10.008;2024-03-02T00:27:06;10.50;;;9.00;;
35961;SDS011;22044;48.298;10.008;2024-03-02T00:30:32;11.13;;;9.13;;
35961;SDS011;22044;48.298;10.008;2024-03-02T00:33:57;13.23;;;8.87;;
35961;SDS011;22044;48.298;10.008;2024-03-02T00:36:51;12.20;;;9.43;;
35961;SDS011;22044;48.298;10.008;2024-03-02T00:39:36;11.80;;;9.23;;
35961;SDS011;22044;48.298;10.008;2024-03-02T00:42:22;9.67;;;8.40;;
35961;SDS011;22044;48.298;10.008;2024-03-02T00:45:08;9.97;;;8.77;;
35961;SDS011;22044;48.298;10.008;2024-03-02T00:47:54;10.27;;;8.50;;
35961;SDS011;22044;48.298;10.008;2024-03-02T00:50:40;10.53;;;8.90;;
35961;SDS011;22044;48.298;10.008;2024-03-02T00:53:27;9.60;;;8.60;;
35961;SDS011;22044;48.298;10.008;2024-03-02T00:56:38;9.47;;;8.40;;
35961;SDS011;22044;48.298;10.008;2024-03-02T00:59:26;10.63;;;8.50;;
35961;SDS011;22044;48.298;10.008;2024-03-02T01:02:11;9.37;;;7.43;;
35961;SDS011;22044;48.298;10.008;2024-03-02T01:04:57;7.50;;;6.70;;
35961;SDS011;22044;48.298;10.008;2024-03-02T01:07:43;9.13;;;7.50;;
35961;SDS011;22044;48.298;10.008;2024-03-02T01:10:30;9.03;;;7.70;;
35961;SDS011;22044;48.298;10.008;2024-03-02T01:13:16;10.50;;;8.63;;
35961;SDS011;22044;48.298;10.008;2024-03-02T01:16:02;9.90;;;8.30;;
35961;SDS011;22044;48.298;10.008;2024-03-02T01:18:48;9.30;;;8.30;;
35961;SDS011;22044;48.298;10.008;2024-03-02T01:21:33;11.87;;;8.57;;
35961;SDS011;22044;48.298;10.008;2024-03-02T01:24:19;9.60;;;8.20;;
35961;SDS011;22044;48.298;10.008;2024-03-02T01:27:06;10.27;;;8.40;;
35961;SDS011;22044;48.298;10.008;2024-03-02T01:29:52;12.70;;;10.73;;
35961;SDS011;22044;48.298;10.008;2024-03-02T01:32:38;14.13;;;10.40;;
35961;SDS011;22044;48.298;10.008;2024-03-02T01:35:24;12.97;;;9.93;;
35961;SDS011;22044;48.298;10.008;2024-03-02T01:38:10;12.27;;;9.67;;
35961;SDS011;22044;48.298;10.008;2024-03-02T01:40:56;15.13;;;10.40;;
35961;SDS011;22044;48.298;10.008;2024-03-02T01:43:43;12.30;;;10.03;;
35961;SDS011;22044;48.298;10.008;2024-03-02T01:46:29;12.97;;;9.67;;
35961;SDS011;22044;48.298;10.008;2024-03-02T01:49:14;11.73;;;9.60;;
35961;SDS011;22044;48.298;10.008;2024-03-02T01:52:00;11.70;;;9.67;;
35961;SDS011;22044;48.298;10.008;2024-03-02T01:54:46;11.63;;;9.67;;
35961;SDS011;22044;48.298;10.008;2024-03-02T01:57:31;12.03;;;9.20;;
35961;SDS011;22044;48.298;10.008;2024-03-02T02:00:19;11.30;;;10.03;;
35961;SDS011;22044;48.298;10.008;2024-03-02T02:03:05;11.30;;;9.73;;
35961;SDS011;22044;48.298;10.008;2024-03-02T02:05:51;9.87;;;8.87;;
35961;SDS011;22044;48.298;10.008;2024-03-02T02:08:38;13.07;;;10.40;;
35961;SDS011;22044;48.298;10.008;2024-03-02T02:11:24;11.57;;;9.63;;
35961;SDS011;22044;48.298;10.008;2024-03-02T02:14:09;11.20;;;9.93;;
35961;SDS011;22044;48.298;10.008;2024-03-02T02:16:57;10.03;;;8.53;;
35961;SDS011;22044;48.298;10.008;2024-03-02T02:19:43;11.17;;;9.80;;
35961;SDS011;22044;48.298;10.008;2024-03-02T02:22:30;10.80;;;8.87;;
35961;SDS011;22044;48.298;10.008;2024-03-02T02:25:42;11.10;;;9.50;;
35961;SDS011;22044;48.298;10.008;2024-03-02T02:28:27;15.17;;;11.70;;
35961;SDS011;22044;48.298;10.008;2024-03-02T02:31:13;12.60;;;11.07;;
35961;SDS011;22044;48.298;10.008;2024-03-02T02:33:58;13.63;;;11.70;;
35961;SDS011;22044;48.298;10.008;2024-03-02T02:36:44;14.47;;;11.10;;
35961;SDS011;22044;48.298;10.008;2024-03-02T02:39:31;11.90;;;10.57;;
35961;SDS011;22044;48.298;10.008;2024-03-02T02:42:17;12.23;;;10.07;;
35961;SDS011;22044;48.298;10.008;2024-03-02T02:45:02;9.73;;;8.47;;
35961;SDS011;22044;48.298;10.008;2024-03-02T02:47:48;8.90;;;7.90;;
35961;SDS011;22044;48.298;10.008;2024-03-02T02:50:34;8.77;;;7.87;;
35961;SDS011;22044;48.298;10.008;2024-03-02T02:53:20;9.20;;;7.63;;
35961;SDS011;22044;48.298;10.008;2024-03-02T02:56:07;9.17;;;7.43;;
35961;SDS011;22044;48.298;10.008;2024-03-02T02:58:53;9.30;;;7.37;;
35961;SDS011;22044;48.298;10.008;2024-03-02T03:01:38;9.77;;;7.80;;
35961;SDS011;22044;48.298;10.008;2024-03-02T03:04:24;9.30;;;7.87;;
35961;SDS011;22044;48.298;10.008;2024-03-02T03:07:10;8.93;;;7.77;;
35961;SDS011;22044;48.298;10.008;2024-03-02T03:09:56;10.30;;;9.20;;
35961;SDS011;22044;48.298;10.008;2024-03-02T03:12:43;10.60;;;8.50;;
35961;SDS011;22044;48.298;10.008;2024-03-02T03:15:29;12.53;;;10.03;;
35961;SDS011;22044;48.298;10.008;2024-03-02T03:18:14;13.43;;;11.20;;
35961;SDS011;22044;48.298;10.008;2024-03-02T03:21:00;15.63;;;12.43;;
35961;SDS011;22044;48.298;10.008;2024-03-02T03:23:46;17.80;;;13.10;;
35961;SDS011;22044;48.298;10.008;2024-03-02T03:26:32;19.17;;;14.90;;
35961;SDS011;22044;48.298;10.008;2024-03-02T03:29:23;20.00;;;14.87;;
35961;SDS011;22044;48.298;10.008;2024-03-02T03:32:09;17.43;;;13.63;;
35961;SDS011;22044;48.298;10.008;2024-03-02T03:34:55;16.23;;;12.50;;
35961;SDS011;22044;48.298;10.008;2024-03-02T03:37:40;18.50;;;13.93;;
35961;SDS011;22044;48.298;10.008;2024-03-02T03:40:27;19.40;;;14.93;;
35961;SDS011;22044;48.298;10.008;2024-03-02T03:43:12;22.47;;;15.70;;
35961;SDS011;22044;48.298;10.008;2024-03-02T03:46:00;23.63;;;16.87;;
35961;SDS011;22044;48.298;10.008;2024-03-02T03:48:46;22.17;;;16.17;;
35961;SDS011;22044;48.298;10.008;2024-03-02T03:51:32;23.03;;;17.13;;
35961;SDS011;22044;48.298;10.008;2024-03-02T03:54:19;24.33;;;17.23;;
35961;SDS011;22044;48.298;10.008;2024-03-02T03:57:04;21.20;;;15.17;;
35961;SDS011;22044;48.298;10.008;2024-03-02T03:59:50;21.20;;;16.37;;
35961;SDS011;22044;48.298;10.008;2024-03-02T04:02:37;17.87;;;14.27;;
35961;SDS011;22044;48.298;10.008;2024-03-02T04:05:22;25.27;;;17.27;;
35961;SDS011;22044;48.298;10.008;2024-03-02T04:08:08;24.10;;;17.80;;
35961;SDS011;22044;48.298;10.008;2024-03-02T04:10:55;21.43;;;16.67;;
35961;SDS011;22044;48.298;10.008;2024-03-02T04:13:41;21.40;;;15.57;;
35961;SDS011;22044;48.298;10.008;2024-03-02T04:16:26;24.17;;;17.20;;
35961;SDS011;22044;48.298;10.008;2024-03-02T04:19:14;20.00;;;15.27;;
35961;SDS011;22044;48.298;10.008;2024-03-02T04:21:59;36.50;;;22.70;;
35961;SDS011;22044;48.298;10.008;2024-03-02T04:24:45;16.40;;;13.57;;
35961;SDS011;22044;48.298;10.008;2024-03-02T04:27:30;17.70;;;12.93;;
35961;SDS011;22044;48.298;10.008;2024-03-02T04:30:16;15.27;;;12.97;;
35961;SDS011;22044;48.298;10.008;2024-03-02T04:33:02;17.47;;;13.80;;
35961;SDS011;22044;48.298;10.008;2024-03-02T04:35:50;17.80;;;12.80;;
35961;SDS011;22044;48.298;10.008;2024-03-02T04:38:37;15.53;;;11.57;;
35961;SDS011;22044;48.298;10.008;2024-03-02T04:41:23;32.70;;;14.43;;
35961;SDS011;22044;48.298;10.008;2024-03-02T04:44:09;63.37;;;15.77;;
35961;SDS011;22044;48.298;10.008;2024-03-02T04:46:55;33.37;;;14.07;;
35961;SDS011;22044;48.298;10.008;2024-03-02T04:49:40;17.03;;;12.77;;
35961;SDS011;22044;48.298;10.008;2024-03-02T04:52:27;35.73;;;15.23;;
35961;SDS011;22044;48.298;10.008;2024-03-02T04:55:13;20.10;;;13.90;;
35961;SDS011;22044;48.298;10.008;2024-03-02T04:58:13;20.33;;;15.33;;
35961;SDS011;22044;48.298;10.008;2024-03-02T05:00:59;21.00;;;13.80;;
35961;SDS011;22044;48.298;10.008;2024-03-02T05:03:44;40.53;;;15.57;;
35961;SDS011;22044;48.298;10.008;2024-03-02T05:06:30;25.33;;;15.00;;
35961;SDS011;22044;48.298;10.008;2024-03-02T05:09:17;18.37;;;13.20;;
35961;SDS011;22044;48.298;10.008;2024-03-02T05:12:03;21.03;;;14.07;;
35961;SDS011;22044;48.298;10.008;2024-03-02T05:15:24;36.53;;;14.20;;
35961;SDS011;22044;48.298;10.008;2024-03-02T05:18:10;24.93;;;15.73;;
35961;SDS011;22044;48.298;10.008;2024-03-02T05:20:55;28.10;;;13.53;;
35961;SDS011;22044;48.298;10.008;2024-03-02T05:23:41;47.63;;;15.00;;
35961;SDS011;22044;48.298;10.008;2024-03-02T05:26:28;54.87;;;15.83;;
35961;SDS011;22044;48.298;10.008;2024-03-02T05:29:13;65.10;;;16.33;;
35961;SDS011;22044;48.298;10.008;2024-03-02T05:31:59;46.30;;;15.33;;
35961;SDS011;22044;48.298;10.008;2024-03-02T05:34:44;81.30;;;16.87;;
35961;SDS011;22044;48.298;10.008;2024-03-02T05:37:55;29.87;;;16.13;;
35961;SDS011;22044;48.298;10.008;2024-03-02T05:40:41;17.47;;;14.63;;
35961;SDS011;22044;48.298;10.008;2024-03-02T05:43:28;27.20;;;15.73;;
35961;SDS011;22044;48.298;10.008;2024-03-02T05:46:13;28.10;;;14.30;;
35961;SDS011;22044;48.298;10.008;2024-03-02T05:48:59;26.27;;;15.87;;
35961;SDS011;22044;48.298;10.008;2024-03-02T05:51:45;26.77;;;13.70;;
35961;SDS011;22044;48.298;10.008;2024-03-02T05:54:30;16.27;;;13.43;;
35961;SDS011;22044;48.298;10.008;2024-03-02T05:57:16;18.80;;;14.83;;
35961;SDS011;22044;48.298;10.008;2024-03-02T06:00:17;17.13;;;14.53;;
35961;SDS011;22044;48.298;10.008;2024-03-02T06:03:03;27.77;;;13.77;;
35961;SDS011;22044;48.298;10.008;2024-03-02T06:05:49;14.30;;;12.33;;
35961;SDS011;22044;48.298;10.008;2024-03-02T06:08:35;27.57;;;13.60;;
35961;SDS011;22044;48.298;10.008;2024-03-02T06:11:21;29.83;;;13.50;;
35961;SDS011;22044;48.298;10.008;2024-03-02T06:14:07;32.17;;;13.80;;
35961;SDS011;22044;48.298;10.008;2024-03-02T06:16:54;30.23;;;13.87;;
35961;SDS011;22044;48.298;10.008;2024-03-02T06:19:40;27.17;;;13.43;;
35961;SDS011;22044;48.298;10.008;2024-03-02T06:22:26;18.73;;;12.43;;
35961;SDS011;22044;48.298;10.008;2024-03-02T06:25:12;19.67;;;13.33;;
35961;SDS011;22044;48.298;10.008;2024-03-02T06:27:57;19.80;;;13.80;;
35961;SDS011;22044;48.298;10.008;2024-03-02T06:30:43;32.67;;;13.63;;
35961;SDS011;22044;48.298;10.008;2024-03-02T06:33:30;21.10;;;12.60;;
35961;SDS011;22044;48.298;10.008;2024-03-02T06:36:16;21.83;;;12.73;;
35961;SDS011;22044;48.298;10.008;2024-03-02T06:39:02;17.47;;;13.73;;
35961;SDS011;22044;48.298;10.008;2024-03-02T06:41:48;21.60;;;13.00;;
35961;SDS011;22044;48.298;10.008;2024-03-02T06:44:33;20.70;;;14.37;;
35961;SDS011;22044;48.298;10.008;2024-03-02T06:47:19;17.10;;;15.07;;
35961;SDS011;22044;48.298;10.008;2024-03-02T06:50:06;34.37;;;14.97;;
35961;SDS011;22044;48.298;10.008;2024-03-02T06:52:53;24.70;;;12.93;;
35961;SDS011;22044;48.298;10.008;2024-03-02T06:55:39;38.50;;;14.23;;
35961;SDS011;22044;48.298;10.008;2024-03-02T06:58:25;18.57;;;13.27;;
35961;SDS011;22044;48.298;10.008;2024-03-02T07:01:11;18.37;;;14.23;;
35961;SDS011;22044;48.298;10.008;2024-03-02T07:03:56;27.07;;;14.43;;
35961;SDS011;22044;48.298;10.008;2024-03-02T07:06:43;24.83;;;14.57;;
35961;SDS011;22044;48.298;10.008;2024-03-02T07:09:29;38.00;;;15.70;;
35961;SDS011;22044;48.298;10.008;2024-03-02T07:12:15;20.70;;;14.60;;
35961;SDS011;22044;48.298;10.008;2024-03-02T07:15:01;52.60;;;16.27;;
35961;SDS011;22044;48.298;10.008;2024-03-02T07:18:03;23.07;;;15.33;;
35961;SDS011;22044;48.298;10.008;2024-03-02T07:20:49;19.87;;;16.23;;
35961;SDS011;22044;48.298;10.008;2024-03-02T07:23:36;16.57;;;14.20;;
35961;SDS011;22044;48.298;10.008;2024-03-02T07:26:22;32.57;;;14.23;;
35961;SDS011;22044;48.298;10.008;2024-03-02T07:29:08;19.33;;;14.07;;
35961;SDS011;22044;48.298;10.008;2024-03-02T07:31:53;18.97;;;14.50;;
35961;SDS011;22044;48.298;10.008;2024-03-02T07:34:39;25.77;;;14.40;;
35961;SDS011;22044;48.298;10.008;2024-03-02T07:37:25;33.13;;;14.10;;
35961;SDS011;22044;48.298;10.008;2024-03-02T07:40:12;28.87;;;13.43;;
35961;SDS011;22044;48.298;10.008;2024-03-02T07:42:58;20.80;;;14.73;;
35961;SDS011;22044;48.298;10.008;2024-03-02T07:45:44;24.50;;;15.17;;
35961;SDS011;22044;48.298;10.008;2024-03-02T07:48:31;18.50;;;14.63;;
35961;SDS011;22044;48.298;10.008;2024-03-02T07:51:17;33.97;;;15.97;;
35961;SDS011;22044;48.298;10.008;2024-03-02T07:54:02;23.47;;;16.90;;
35961;SDS011;22044;48.298;10.008;2024-03-02T07:56:50;49.30;;;17.97;;
35961;SDS011;22044;48.298;10.008;2024-03-02T07:59:36;46.00;;;16.20;;
35961;SDS011;22044;48.298;10.008;2024-03-02T08:02:22;21.80;;;15.60;;
35961;SDS011;22044;48.298;10.008;2024-03-02T08:05:08;21.20;;;15.87;;
35961;SDS011;22044;48.298;10.008;2024-03-02T08:07:54;23.27;;;15.23;;
35961;SDS011;22044;48.298;10.008;2024-03-02T08:10:39;32.90;;;15.67;;
35961;SDS011;22044;48.298;10.008;2024-03-02T08:13:26;29.70;;;15.47;;
35961;SDS011;22044;48.298;10.008;2024-03-02T08:16:12;23.67;;;15.30;;
35961;SDS011;22044;48.298;10.008;2024-03-02T08:18:58;40.13;;;15.43;;
35961;SDS011;22044;48.298;10.008;2024-03-02T08:21:44;21.03;;;13.30;;
35961;SDS011;22044;48.298;10.008;2024-03-02T08:24:30;19.43;;;14.13;;
35961;SDS011;22044;48.298;10.008;2024-03-02T08:27:15;64.23;;;15.00;;
35961;SDS011;22044;48.298;10.008;2024-03-02T08:30:02;45.70;;;14.93;;
35961;SDS011;22044;48.298;10.008;2024-03-02T08:32:50;31.23;;;13.73;;
35961;SDS011;22044;48.298;10.008;2024-03-02T08:35:36;22.03;;;13.27;;
35961;SDS011;22044;48.298;10.008;2024-03-02T08:38:21;35.80;;;15.67;;
35961;SDS011;22044;48.298;10.008;2024-03-02T08:41:07;21.27;;;15.23;;
35961;SDS011;22044;48.298;10.008;2024-03-02T08:43:53;27.13;;;15.40;;
35961;SDS011;22044;48.298;10.008;2024-03-02T08:46:40;25.07;;;16.80;;
35961;SDS011;22044;48.298;10.008;2024-03-02T08:49:25;18.77;;;13.70;;
35961;SDS011;22044;48.298;10.008;2024-03-02T08:52:11;30.53;;;14.80;;
35961;SDS011;22044;48.298;10.008;2024-03-02T08:54:57;68.13;;;18.17;;
35961;SDS011;22044;48.298;10.008;2024-03-02T08:57:43;21.80;;;15.87;;
35961;SDS011;22044;48.298;10.008;2024-03-02T09:00:28;26.13;;;14.73;;
35961;SDS011;22044;48.298;10.008;2024-03-02T09:03:15;34.60;;;14.30;;
35961;SDS011;22044;48.298;10.008;2024-03-02T09:06:02;34.20;;;15.23;;
35961;SDS011;22044;48.298;10.008;2024-03-02T09:08:47;29.17;;;14.63;;
35961;SDS011;22044;48.298;10.008;2024-03-02T09:11:35;26.73;;;14.13;;
35961;SDS011;22044;48.298;10.008;2024-03-02T09:14:21;58.53;;;15.87;;
35961;SDS011;22044;48.298;10.008;2024-03-02T09:17:07;26.70;;;15.83;;
35961;SDS011;22044;48.298;10.008;2024-03-02T09:19:56;21.63;;;16.73;;
35961;SDS011;22044;48.298;10.008;2024-03-02T09:22:42;23.50;;;16.43;;
35961;SDS011;22044;48.298;10.008;2024-03-02T09:25:27;30.40;;;17.27;;
35961;SDS011;22044;48.298;10.008;2024-03-02T09:28:18;37.87;;;18.23;;
35961;SDS011;22044;48.298;10.008;2024-03-02T09:31:03;22.37;;;17.00;;
35961;SDS011;22044;48.298;10.008;2024-03-02T09:33:49;24.13;;;18.40;;
35961;SDS011;22044;48.298;10.008;2024-03-02T09:36:39;30.20;;;17.43;;
35961;SDS011;22044;48.298;10.008;2024-03-02T09:39:25;25.73;;;17.87;;
35961;SDS011;22044;48.298;10.008;2024-03-02T09:42:11;24.03;;;18.40;;
35961;SDS011;22044;48.298;10.008;2024-03-02T09:44:57;24.80;;;18.73;;
35961;SDS011;22044;48.298;10.008;2024-03-02T09:47:44;27.83;;;20.20;;
35961;SDS011;22044;48.298;10.008;2024-03-02T09:50:30;24.53;;;19.20;;
35961;SDS011;22044;48.298;10.008;2024-03-02T09:53:18;23.03;;;17.57;;
35961;SDS011;22044;48.298;10.008;2024-03-02T09:56:04;22.70;;;17.50;;
35961;SDS011;22044;48.298;10.008;2024-03-02T09:58:49;23.60;;;17.43;;
35961;SDS011;22044;48.298;10.008;2024-03-02T10:01:35;19.47;;;16.20;;
35961;SDS011;22044;48.298;10.008;2024-03-02T10:04:21;19.50;;;15.97;;
35961;SDS011;22044;48.298;10.008;2024-03-02T10:07:11;21.53;;;16.80;;
35961;SDS011;22044;48.298;10.008;2024-03-02T10:10:00;23.97;;;17.10;;
35961;SDS011;22044;48.298;10.008;2024-03-02T10:12:59;18.80;;;15.27;;
35961;SDS011;22044;48.298;10.008;2024-03-02T10:16:15;20.90;;;16.27;;
35961;SDS011;22044;48.298;10.008;2024-03-02T10:19:27;20.30;;;16.63;;
35961;SDS011;22044;48.298;10.008;2024-03-02T10:22:16;21.03;;;16.87;;
35961;SDS011;22044;48.298;10.008;2024-03-02T10:25:04;20.17;;;16.90;;
35961;SDS011;22044;48.298;10.008;2024-03-02T10:27:50;20.97;;;17.20;;
35961;SDS011;22044;48.298;10.008;2024-03-02T10:30:37;20.13;;;15.83;;
35961;SDS011;22044;48.298;10.008;2024-03-02T10:33:24;17.90;;;15.13;;
35961;SDS011;22044;48.298;10.008;2024-03-02T10:36:09;18.83;;;15.00;;
35961;SDS011;22044;48.298;10.008;2024-03-02T10:38:55;20.57;;;16.03;;
35961;SDS011;22044;48.298;10.008;2024-03-02T10:41:44;19.43;;;16.80;;
35961;SDS011;22044;48.298;10.008;2024-03-02T10:44:34;18.00;;;14.77;;
35961;SDS011;22044;48.298;10.008;2024-03-02T10:47:20;16.17;;;14.30;;
35961;SDS011;22044;48.298;10.008;2024-03-02T10:50:08;16.30;;;13.97;;
35961;SDS011;22044;48.298;10.008;2024-03-02T10:52:54;16.53;;;14.07;;
35961;SDS011;22044;48.298;10.008;2024-03-02T10:55:40;16.03;;;13.50;;
35961;SDS011;22044;48.298;10.008;2024-03-02T10:58:26;15.07;;;13.07;;
35961;SDS011;22044;48.298;10.008;2024-03-02T11:01:17;16.40;;;13.77;;
35961;SDS011;22044;48.298;10.008;2024-03-02T11:04:04;15.60;;;13.87;;
35961;SDS011;22044;48.298;10.008;2024-03-02T11:06:54;14.57;;;12.37;;
35961;SDS011;22044;48.298;10.008;2024-03-02T11:09:45;14.47;;;12.57;;
35961;SDS011;22044;48.298;10.008;2024-03-02T11:12:38;14.00;;;12.50;;
35961;SDS011;22044;48.298;10.008;2024-03-02T11:15:29;13.43;;;11.93;;
35961;SDS011;22044;48.298;10.008;2024-03-02T11:18:15;13.07;;;11.63;;
35961;SDS011;22044;48.298;10.008;2024-03-02T11:21:01;13.43;;;11.83;;
35961;SDS011;22044;48.298;10.008;2024-03-02T11:23:48;14.40;;;12.43;;
35961;SDS011;22044;48.298;10.008;2024-03-02T11:26:34;17.50;;;13.20;;
35961;SDS011;22044;48.298;10.008;2024-03-02T11:32:32;12.40;;;9.63;;
35961;SDS011;22044;48.298;10.008;2024-03-02T11:35:17;9.97;;;8.97;;
35961;SDS011;22044;48.298;10.008;2024-03-02T11:38:06;12.27;;;9.83;;
35961;SDS011;22044;48.298;10.008;2024-03-02T11:40:51;12.27;;;10.50;;
35961;SDS011;22044;48.298;10.008;2024-03-02T11:43:37;9.53;;;8.63;;
35961;SDS011;22044;48.298;10.008;2024-03-02T11:46:24;10.83;;;9.73;;
35961;SDS011;22044;48.298;10.008;2024-03-02T11:49:15;10.97;;;9.87;;
35961;SDS011;22044;48.298;10.008;2024-03-02T11:52:05;12.60;;;11.23;;
35961;SDS011;22044;48.298;10.008;2024-03-02T11:54:52;11.90;;;10.70;;
35961;SDS011;22044;48.298;10.008;2024-03-02T11:57:38;11.90;;;10.70;;
35961;SDS011;22044;48.298;10.008;2024-03-02T12:00:24;13.27;;;11.87;;
35961;SDS011;22044;48.298;10.008;2024-03-02T12:03:12;11.90;;;10.70;;
35961;SDS011;22044;48.298;10.008;2024-03-02T12:05:59;12.00;;;10.80;;
35961;SDS011;22044;48.298;10.008;2024-03-02T12:08:45;13.97;;;12.47;;
35961;SDS011;22044;48.298;10.008;2024-03-02T12:11:30;12.33;;;11.03;;
35961;SDS011;22044;48.298;10.008;2024-03-02T12:14:16;11.30;;;10.20;;
35961;SDS011;22044;48.298;10.008;2024-03-02T12:17:02;11.60;;;10.40;;
35961;SDS011;22044;48.298;10.008;2024-03-02T12:19:48;10.57;;;9.57;;
35961;SDS011;22044;48.298;10.008;2024-03-02T12:22:35;10.17;;;9.17;;
35961;SDS011;22044;48.298;10.008;2024-03-02T12:25:22;9.93;;;8.87;;
35961;SDS011;22044;48.298;10.008;2024-03-02T12:28:08;9.07;;;7.90;;
35961;SDS011;22044;48.298;10.008;2024-03-02T12:30:53;11.63;;;9.90;;
35961;SDS011;22044;48.298;10.008;2024-03-02T12:33:39;10.70;;;9.60;;
35961;SDS011;22044;48.298;10.008;2024-03-02T12:36:25;9.93;;;8.90;;
35961;SDS011;22044;48.298;10.008;2024-03-02T12:39:12;8.63;;;7.23;;
35961;SDS011;22044;48.298;10.008;2024-03-02T12:41:58;7.47;;;6.50;;
35961;SDS011;22044;48.298;10.008;2024-03-02T12:44:44;8.67;;;7.87;;
35961;SDS011;22044;48.298;10.008;2024-03-02T12:47:29;8.00;;;7.20;;
35961;SDS011;22044;48.298;10.008;2024-03-02T12:50:15;7.93;;;6.97;;
35961;SDS011;22044;48.298;10.008;2024-03-02T12:53:00;8.17;;;7.37;;
35961;SDS011;22044;48.298;10.008;2024-03-02T12:55:48;7.83;;;7.10;;
35961;SDS011;22044;48.298;10.008;2024-03-02T12:58:38;7.67;;;6.97;;
35961;SDS011;22044;48.298;10.008;2024-03-02T13:01:24;7.83;;;7.03;;
35961;SDS011;22044;48.298;10.008;2024-03-02T13:04:10;7.73;;;6.60;;
35961;SDS011;22044;48.298;10.008;2024-03-02T13:07:10;7.07;;;6.37;;
35961;SDS011;22044;48.298;10.008;2024-03-02T13:10:24;8.10;;;7.37;;
35961;SDS011;22044;48.298;10.008;2024-03-02T13:13:38;8.07;;;7.23;;
35961;SDS011;22044;48.298;10.008;2024-03-02T13:16:24;8.17;;;6.47;;
35961;SDS011;22044;48.298;10.008;2024-03-02T13:19:10;6.77;;;6.07;;
35961;SDS011;22044;48.298;10.008;2024-03-02T13:21:56;8.40;;;6.67;;
35961;SDS011;22044;48.298;10.008;2024-03-02T13:24:42;7.53;;;6.70;;
35961;SDS011;22044;48.298;10.008;2024-03-02T13:27:28;7.53;;;6.73;;
35961;SDS011;22044;48.298;10.008;2024-03-02T13:30:14;7.83;;;6.87;;
35961;SDS011;22044;48.298;10.008;2024-03-02T13:33:00;6.80;;;6.10;;
35961;SDS011;22044;48.298;10.008;2024-03-02T13:35:46;7.33;;;6.63;;
35961;SDS011;22044;48.298;10.008;2024-03-02T13:38:32;8.10;;;7.30;;
35961;SDS011;22044;48.298;10.008;2024-03-02T13:41:18;8.20;;;7.47;;
35961;SDS011;22044;48.298;10.008;2024-03-02T13:44:04;10.50;;;8.00;;
35961;SDS011;22044;48.298;10.008;2024-03-02T13:46:51;8.90;;;7.07;;
35961;SDS011;22044;48.298;10.008;2024-03-02T13:49:37;7.80;;;7.07;;
35961;SDS011;22044;48.298;10.008;2024-03-02T13:52:27;7.73;;;7.03;;
35961;SDS011;22044;48.298;10.008;2024-03-02T13:55:14;8.50;;;7.63;;
35961;SDS011;22044;48.298;10.008;2024-03-02T13:58:00;8.63;;;7.83;;
35961;SDS011;22044;48.298;10.008;2024-03-02T14:00:46;9.20;;;8.17;;
35961;SDS011;22044;48.298;10.008;2024-03-02T14:03:32;7.60;;;6.80;;
35961;SDS011;22044;48.298;10.008;2024-03-02T14:06:18;8.23;;;7.43;;
35961;SDS011;22044;48.298;10.008;2024-03-02T14:09:04;8.27;;;7.47;;
35961;SDS011;22044;48.298;10.008;2024-03-02T14:11:50;7.13;;;6.53;;
35961;SDS011;22044;48.298;10.008;2024-03-02T14:14:35;8.27;;;7.03;;
35961;SDS011;22044;48.298;10.008;2024-03-02T14:17:21;7.93;;;7.23;;
35961;SDS011;22044;48.298;10.008;2024-03-02T14:20:09;7.50;;;6.80;;
35961;SDS011;22044;48.298;10.008;2024-03-02T14:22:56;7.70;;;7.00;;
35961;SDS011;22044;48.298;10.008;2024-03-02T14:25:43;7.17;;;6.47;;
35961;SDS011;22044;48.298;10.008;2024-03-02T14:28:29;7.50;;;6.63;;
35961;SDS011;22044;48.298;10.008;2024-03-02T14:31:14;6.70;;;5.97;;
35961;SDS011;22044;48.298;10.008;2024-03-02T14:34:00;7.07;;;5.93;;
35961;SDS011;22044;48.298;10.008;2024-03-02T14:36:48;7.40;;;5.73;;
35961;SDS011;22044;48.298;10.008;2024-03-02T14:39:34;6.97;;;5.30;;
35961;SDS011;22044;48.298;10.008;2024-03-02T14:42:20;6.30;;;5.17;;
35961;SDS011;22044;48.298;10.008;2024-03-02T14:45:06;4.50;;;4.10;;
35961;SDS011;22044;48.298;10.008;2024-03-02T14:47:52;2.40;;;1.93;;
35961;SDS011;22044;48.298;10.008;2024-03-02T14:50:37;2.30;;;2.10;;
35961;SDS011;22044;48.298;10.008;2024-03-02T14:53:24;4.80;;;2.53;;
35961;SDS011;22044;48.298;10.008;2024-03-02T14:56:10;2.30;;;2.03;;
35961;SDS011;22044;48.298;10.008;2024-03-02T14:58:57;2.70;;;2.30;;
35961;SDS011;22044;48.298;10.008;2024-03-02T15:01:43;6.63;;;2.77;;
35961;SDS011;22044;48.298;10.008;2024-03-02T15:04:30;2.90;;;2.60;;
35961;SDS011;22044;48.298;10.008;2024-03-02T15:07:15;5.60;;;2.73;;
35961;SDS011;22044;48.298;10.008;2024-03-02T15:10:03;3.17;;;2.87;;
35961;SDS011;22044;48.298;10.008;2024-03-02T15:12:49;4.43;;;2.60;;
35961;SDS011;22044;48.298;10.008;2024-03-02T15:15:35;3.00;;;2.63;;
35961;SDS011;22044;48.298;10.008;2024-03-02T15:18:21;2.80;;;2.53;;
35961;SDS011;22044;48.298;10.008;2024-03-02T15:21:07;4.00;;;3.07;;
35961;SDS011;22044;48.298;10.008;2024-03-02T15:23:53;3.30;;;2.87;;
35961;SDS011;22044;48.298;10.008;2024-03-02T15:26:40;4.67;;;3.60;;
35961;SDS011;22044;48.298;10.008;2024-03-02T15:29:26;5.00;;;3.90;;
35961;SDS011;22044;48.298;10.008;2024-03-02T15:32:13;4.33;;;3.93;;
35961;SDS011;22044;48.298;10.008;2024-03-02T15:34:59;7.33;;;4.77;;
35961;SDS011;22044;48.298;10.008;2024-03-02T15:37:44;5.87;;;4.80;;
35961;SDS011;22044;48.298;10.008;2024-03-02T15:40:30;7.07;;;4.53;;
35961;SDS011;22044;48.298;10.008;2024-03-02T15:43:17;6.47;;;4.37;;
35961;SDS011;22044;48.298;10.008;2024-03-02T15:46:03;5.53;;;4.37;;
35961;SDS011;22044;48.298;10.008;2024-03-02T15:48:48;6.50;;;5.40;;
35961;SDS011;22044;48.298;10.008;2024-03-02T15:51:34;6.50;;;5.20;;
35961;SDS011;22044;48.298;10.008;2024-03-02T15:54:24;10.30;;;5.90;;
35961;SDS011;22044;48.298;10.008;2024-03-02T15:57:10;8.20;;;6.10;;
35961;SDS011;22044;48.298;10.008;2024-03-02T15:59:57;7.40;;;5.77;;
35961;SDS011;22044;48.298;10.008;2024-03-02T16:02:42;8.83;;;6.30;;
35961;SDS011;22044;48.298;10.008;2024-03-02T16:05:28;7.80;;;6.23;;
35961;SDS011;22044;48.298;10.008;2024-03-02T16:08:14;7.50;;;6.70;;
35961;SDS011;22044;48.298;10.008;2024-03-02T16:10:59;9.80;;;7.70;;
35961;SDS011;22044;48.298;10.008;2024-03-02T16:13:46;9.93;;;7.83;;
35961;SDS011;22044;48.298;10.008;2024-03-02T16:16:33;10.83;;;7.93;;
35961;SDS011;22044;48.298;10.008;2024-03-02T16:19:19;11.27;;;8.60;;